Time;durP1;ratioP1;P1;durP2;ratioP2;P2;SDS_P1;SDS_P2;PMS_P1;PMS_P2;Temp;Humidity;BMP_temperature;BMP_pressure;BME280_temperature;BME280_humidity;BME280_pressure;Samples;Min_cycle;Max_cycle;Signal;HPM_P1;HPM_P2
2023/04/22 00:00:39;;;;;;;7.47;5.07;;;;;;;;;;5078317;28;20478;-76
2023/04/22 00:03:07;;;;;;;5.97;5.30;;;;;;;;;;5078057;28;20169;-77
2023/04/22 00:05:33;;;;;;;6.07;5.07;;;;;;;;;;5078025;28;20176;-77
2023/04/22 00:07:59;;;;;;;8.05;5.28;;;;;;;;;;5077986;28;20185;-80
2023/04/22 00:10:25;;;;;;;8.82;5.78;;;;;;;;;;5077789;28;20203;-76
2023/04/22 00:12:51;;;;;;;7.35;5.22;;;;;;;;;;5060283;28;20235;-76
2023/04/22 00:15:20;;;;;;;9.07;5.13;;;;;;;;;;5076855;28;20173;-76
2023/04/22 00:17:46;;;;;;;7.22;5.03;;;;;;;;;;5077576;28;20407;-76
2023/04/22 00:20:12;;;;;;;7.70;5.67;;;;;;;;;;5059287;28;20231;-76
2023/04/22 00:22:38;;;;;;;6.85;5.28;;;;;;;;;;5076263;28;20941;-76
2023/04/22 00:25:04;;;;;;;6.60;5.80;;;;;;;;;;5077242;28;20181;-76
2023/04/22 00:27:30;;;;;;;7.15;5.40;;;;;;;;;;5059476;28;20416;-76
2023/04/22 00:29:56;;;;;;;6.83;5.27;;;;;;;;;;5076790;28;20222;-76
2023/04/22 00:32:22;;;;;;;7.43;5.70;;;;;;;;;;5076806;28;20407;-76
2023/04/22 00:34:48;;;;;;;6.60;5.25;;;;;;;;;;5059312;28;20836;-76
2023/04/22 00:37:14;;;;;;;7.53;4.93;;;;;;;;;;5076692;28;20538;-77
2023/04/22 00:39:40;;;;;;;6.75;4.65;;;;;;;;;;5077052;28;20201;-76
2023/04/22 00:42:06;;;;;;;6.40;5.33;;;;;;;;;;5059258;28;20193;-77
2023/04/22 00:44:32;;;;;;;7.10;5.23;;;;;;;;;;5076613;28;20835;-76
2023/04/22 00:46:59;;;;;;;6.55;4.50;;;;;;;;;;5058953;28;20425;-76
2023/04/22 00:49:26;;;;;;;6.80;5.13;;;;;;;;;;5057892;28;20232;-76
2023/04/22 00:51:53;;;;;;;7.10;5.50;;;;;;;;;;5076969;28;20238;-77
2023/04/22 00:54:19;;;;;;;9.43;5.00;;;;;;;;;;5058921;28;20180;-76
2023/04/22 00:56:45;;;;;;;9.68;5.45;;;;;;;;;;5076406;28;20255;-76
2023/04/22 00:59:12;;;;;;;8.25;5.70;;;;;;;;;;5076762;28;20747;-76
2023/04/22 01:01:38;;;;;;;6.53;4.85;;;;;;;;;;5076717;28;20181;-77
2023/04/22 01:04:05;;;;;;;7.05;5.55;;;;;;;;;;5076433;28;20298;-77
2023/04/22 01:06:31;;;;;;;9.05;5.68;;;;;;;;;;5058631;28;20189;-76
2023/04/22 01:08:58;;;;;;;7.78;5.65;;;;;;;;;;5076494;28;20204;-76
2023/04/22 01:11:24;;;;;;;14.57;5.32;;;;;;;;;;5076301;28;20289;-76
2023/04/22 01:13:50;;;;;;;8.75;5.07;;;;;;;;;;5076673;28;20535;-76
2023/04/22 01:16:16;;;;;;;8.43;5.75;;;;;;;;;;5075987;28;20311;-76
2023/04/22 01:18:42;;;;;;;8.10;6.60;;;;;;;;;;5076503;28;20196;-76
2023/04/22 01:21:08;;;;;;;8.70;5.97;;;;;;;;;;5076135;28;20523;-77
2023/04/22 01:23:34;;;;;;;7.50;6.40;;;;;;;;;;5075963;28;20431;-76
2023/04/22 01:26:00;;;;;;;10.43;6.57;;;;;;;;;;5076531;28;20410;-76
2023/04/22 01:28:26;;;;;;;10.90;6.47;;;;;;;;;;5058239;28;20213;-76
2023/04/22 01:30:53;;;;;;;9.52;6.90;;;;;;;;;;5076702;28;20396;-77
2023/04/22 01:33:19;;;;;;;12.95;7.20;;;;;;;;;;5075792;28;20640;-76
2023/04/22 01:35:45;;;;;;;12.25;7.18;;;;;;;;;;5075829;28;20243;-76
2023/04/22 01:38:11;;;;;;;14.68;8.57;;;;;;;;;;5075269;28;20548;-77
2023/04/22 01:40:38;;;;;;;14.05;9.48;;;;;;;;;;5075850;28;20201;-76
2023/04/22 01:43:04;;;;;;;15.52;9.43;;;;;;;;;;5057341;28;20177;-83
2023/04/22 01:45:30;;;;;;;18.33;10.95;;;;;;;;;;5075970;28;20256;-76
2023/04/22 01:47:56;;;;;;;14.73;10.30;;;;;;;;;;5075921;28;20645;-76
2023/04/22 01:50:23;;;;;;;15.27;9.73;;;;;;;;;;5074747;28;20220;-77
2023/04/22 01:52:49;;;;;;;21.15;10.75;;;;;;;;;;5075557;28;20247;-76
2023/04/22 01:55:15;;;;;;;19.85;12.63;;;;;;;;;;5057430;28;20185;-77
2023/04/22 01:57:41;;;;;;;23.70;12.23;;;;;;;;;;5075791;28;20181;-76
2023/04/22 02:00:08;;;;;;;18.48;11.80;;;;;;;;;;5074951;28;20208;-77
2023/04/22 02:02:34;;;;;;;18.40;12.38;;;;;;;;;;5075698;28;20180;-77
2023/04/22 02:05:00;;;;;;;16.60;12.02;;;;;;;;;;5075762;28;20172;-76
2023/04/22 02:07:26;;;;;;;20.20;11.67;;;;;;;;;;5075433;28;20193;-76
2023/04/22 02:09:52;;;;;;;18.83;12.33;;;;;;;;;;5075592;28;20506;-76
2023/04/22 02:12:18;;;;;;;18.93;11.93;;;;;;;;;;5075733;28;20414;-76
2023/04/22 02:14:44;;;;;;;17.63;12.60;;;;;;;;;;5075684;28;20891;-76
2023/04/22 02:17:10;;;;;;;19.67;11.63;;;;;;;;;;5058122;28;20407;-76
2023/04/22 02:19:36;;;;;;;16.80;11.40;;;;;;;;;;5057919;28;20466;-76
2023/04/22 02:22:02;;;;;;;16.83;12.13;;;;;;;;;;5076373;28;20181;-76
2023/04/22 02:24:28;;;;;;;22.05;12.75;;;;;;;;;;5075839;28;20414;-77
2023/04/22 02:26:54;;;;;;;15.67;11.87;;;;;;;;;;5076113;28;20181;-76
2023/04/22 02:29:20;;;;;;;15.00;11.17;;;;;;;;;;5075189;28;20793;-76
2023/04/22 02:31:46;;;;;;;18.42;12.70;;;;;;;;;;5075554;28;20403;-76
2023/04/22 02:34:12;;;;;;;17.48;12.27;;;;;;;;;;5075650;28;20181;-76
2023/04/22 02:36:38;;;;;;;19.60;11.87;;;;;;;;;;5075460;28;20683;-76
2023/04/22 02:39:04;;;;;;;18.37;12.07;;;;;;;;;;5057841;28;20471;-76
2023/04/22 02:41:31;;;;;;;19.75;12.68;;;;;;;;;;5075539;28;20414;-76
2023/04/22 02:43:57;;;;;;;18.58;12.57;;;;;;;;;;5075803;28;20177;-76
2023/04/22 02:46:23;;;;;;;20.00;12.37;;;;;;;;;;5075330;28;20177;-77
2023/04/22 02:48:48;;;;;;;22.73;14.00;;;;;;;;;;5075728;28;20485;-76
2023/04/22 02:51:15;;;;;;;20.13;14.00;;;;;;;;;;5075020;28;20560;-76
2023/04/22 02:53:41;;;;;;;16.95;12.65;;;;;;;;;;5078390;28;20517;-76
2023/04/22 02:56:07;;;;;;;21.05;13.35;;;;;;;;;;5079486;28;20169;-76
2023/04/22 02:58:33;;;;;;;22.48;14.07;;;;;;;;;;5079204;28;20173;-76
2023/04/22 03:00:59;;;;;;;21.80;15.07;;;;;;;;;;5079342;28;20303;-77
2023/04/22 03:03:26;;;;;;;18.00;13.35;;;;;;;;;;5079478;28;20175;-76
2023/04/22 03:05:52;;;;;;;26.00;16.08;;;;;;;;;;5079975;28;20169;-76
2023/04/22 03:08:18;;;;;;;21.88;14.27;;;;;;;;;;5079206;28;20165;-77
2023/04/22 03:10:44;;;;;;;26.55;16.65;;;;;;;;;;5079706;28;20173;-76
2023/04/22 03:13:12;;;;;;;22.83;15.95;;;;;;;;;;5079340;28;20264;-77
2023/04/22 03:15:39;;;;;;;22.90;16.05;;;;;;;;;;5079043;28;20570;-76
2023/04/22 03:18:05;;;;;;;23.60;15.75;;;;;;;;;;5079691;28;20243;-76
2023/04/22 03:20:31;;;;;;;27.47;16.20;;;;;;;;;;5078649;28;20200;-76
2023/04/22 03:22:57;;;;;;;26.13;17.40;;;;;;;;;;5079197;28;20765;-76
2023/04/22 03:25:23;;;;;;;25.42;16.70;;;;;;;;;;5079144;28;20407;-76
2023/04/22 03:27:49;;;;;;;23.87;17.77;;;;;;;;;;5078673;28;20169;-76
2023/04/22 03:30:15;;;;;;;24.90;17.98;;;;;;;;;;5077844;28;20496;-77
2023/04/22 03:32:41;;;;;;;21.48;15.75;;;;;;;;;;5078679;28;20633;-76
2023/04/22 03:35:07;;;;;;;22.40;16.20;;;;;;;;;;5079555;28;20188;-76
2023/04/22 03:37:33;;;;;;;23.98;16.70;;;;;;;;;;5078227;28;20418;-76
2023/04/22 03:39:59;;;;;;;28.45;17.45;;;;;;;;;;5078719;28;20196;-76
2023/04/22 03:42:25;;;;;;;29.30;16.53;;;;;;;;;;5078373;28;20660;-76
2023/04/22 03:44:52;;;;;;;21.30;16.03;;;;;;;;;;5078996;28;20817;-76
2023/04/22 03:47:17;;;;;;;21.75;14.55;;;;;;;;;;5078703;28;20407;-76
2023/04/22 03:49:44;;;;;;;27.90;15.83;;;;;;;;;;5060504;28;20224;-76
2023/04/22 03:52:10;;;;;;;19.42;15.05;;;;;;;;;;5060277;28;20957;-76
2023/04/22 03:54:36;;;;;;;17.80;14.10;;;;;;;;;;5078227;28;20181;-76
2023/04/22 03:57:02;;;;;;;18.83;13.70;;;;;;;;;;5078126;28;20422;-76
2023/04/22 03:59:28;;;;;;;17.43;14.13;;;;;;;;;;5078361;28;20455;-76
2023/04/22 04:01:53;;;;;;;18.10;13.30;;;;;;;;;;5060847;28;20407;-76
2023/04/22 04:04:21;;;;;;;20.37;15.10;;;;;;;;;;5077287;28;20742;-76
2023/04/22 04:06:47;;;;;;;26.00;16.83;;;;;;;;;;5078875;28;20407;-76
2023/04/22 04:09:13;;;;;;;22.40;18.40;;;;;;;;;;5078193;28;20184;-78
2023/04/22 04:11:39;;;;;;;30.33;18.93;;;;;;;;;;5060666;28;20414;-76
2023/04/22 04:14:06;;;;;;;27.90;20.13;;;;;;;;;;5077833;28;20400;-76
2023/04/22 04:16:32;;;;;;;28.35;20.52;;;;;;;;;;5077843;28;20173;-76
2023/04/22 04:18:58;;;;;;;28.83;21.15;;;;;;;;;;5077780;28;20203;-76
2023/04/22 04:21:25;;;;;;;25.70;19.50;;;;;;;;;;5059674;28;20280;-76
2023/04/22 04:23:51;;;;;;;23.75;20.05;;;;;;;;;;5077807;28;20403;-76
2023/04/22 04:26:19;;;;;;;24.98;17.70;;;;;;;;;;5077674;28;20257;-76
2023/04/22 04:28:46;;;;;;;22.63;16.75;;;;;;;;;;5077882;28;20183;-76
2023/04/22 04:31:12;;;;;;;23.60;15.80;;;;;;;;;;5077767;28;20169;-76
2023/04/22 04:33:38;;;;;;;20.65;16.38;;;;;;;;;;5077388;28;20177;-76
2023/04/22 04:36:04;;;;;;;21.63;15.48;;;;;;;;;;5060062;28;20199;-76
2023/04/22 04:38:31;;;;;;;22.20;15.27;;;;;;;;;;5077014;28;20201;-76
2023/04/22 04:40:57;;;;;;;21.77;14.98;;;;;;;;;;5077569;28;20180;-76
2023/04/22 04:43:24;;;;;;;20.33;14.77;;;;;;;;;;5077163;28;20173;-76
2023/04/22 04:45:50;;;;;;;17.73;14.48;;;;;;;;;;5077816;28;20279;-76
2023/04/22 04:48:18;;;;;;;15.63;13.05;;;;;;;;;;5077740;28;20181;-77
2023/04/22 04:50:44;;;;;;;16.77;13.57;;;;;;;;;;5059054;28;20262;-76
2023/04/22 04:53:11;;;;;;;16.20;13.05;;;;;;;;;;5077573;28;20197;-76
2023/04/22 04:55:37;;;;;;;17.25;12.15;;;;;;;;;;5059153;28;20177;-76
2023/04/22 04:58:03;;;;;;;16.92;14.00;;;;;;;;;;5077188;28;20173;-76
2023/04/22 05:00:29;;;;;;;19.45;14.15;;;;;;;;;;5076986;28;20208;-76
2023/04/22 05:02:55;;;;;;;15.65;13.30;;;;;;;;;;5058742;28;20652;-76
2023/04/22 05:05:21;;;;;;;21.30;13.30;;;;;;;;;;5076267;28;20204;-76
2023/04/22 05:07:47;;;;;;;15.93;12.87;;;;;;;;;;5059087;28;20411;-76
2023/04/22 05:10:13;;;;;;;18.80;13.50;;;;;;;;;;5059128;28;20442;-77
2023/04/22 05:12:40;;;;;;;13.93;11.88;;;;;;;;;;5059066;28;20954;-76
2023/04/22 05:15:06;;;;;;;14.32;11.80;;;;;;;;;;5058981;28;20185;-76
2023/04/22 05:17:32;;;;;;;14.32;11.10;;;;;;;;;;5076512;28;20499;-77
2023/04/22 05:19:58;;;;;;;12.93;10.13;;;;;;;;;;5058784;28;20220;-76
2023/04/22 05:22:24;;;;;;;13.97;11.03;;;;;;;;;;5058815;28;20427;-76
2023/04/22 05:24:50;;;;;;;15.30;12.20;;;;;;;;;;5076147;28;20502;-76
2023/04/22 05:27:16;;;;;;;13.38;11.40;;;;;;;;;;5075752;28;20411;-76
2023/04/22 05:29:42;;;;;;;19.27;12.03;;;;;;;;;;5075606;28;20267;-77
2023/04/22 05:32:08;;;;;;;14.63;10.10;;;;;;;;;;5075582;28;20522;-83
2023/04/22 05:34:34;;;;;;;14.65;10.23;;;;;;;;;;5056428;28;20449;-83
2023/04/22 05:37:02;;;;;;;11.52;9.57;;;;;;;;;;5057336;28;20227;-77
2023/04/22 05:39:28;;;;;;;14.75;10.70;;;;;;;;;;5057526;28;20203;-76
2023/04/22 05:41:54;;;;;;;11.63;9.77;;;;;;;;;;5075200;28;20268;-77
2023/04/22 05:44:20;;;;;;;14.30;9.98;;;;;;;;;;5075197;28;20948;-77
2023/04/22 05:46:46;;;;;;;11.47;9.80;;;;;;;;;;5075523;28;20176;-76
2023/04/22 05:49:12;;;;;;;10.90;9.77;;;;;;;;;;5057528;28;20414;-77
2023/04/22 05:51:38;;;;;;;12.60;8.53;;;;;;;;;;5057210;28;20181;-76
2023/04/22 05:54:04;;;;;;;13.73;9.23;;;;;;;;;;5057858;28;20403;-76
2023/04/22 05:56:30;;;;;;;11.40;8.75;;;;;;;;;;5075010;28;20439;-78
2023/04/22 05:58:56;;;;;;;9.65;8.70;;;;;;;;;;5075303;28;20729;-76
2023/04/22 06:01:23;;;;;;;13.00;9.17;;;;;;;;;;5074883;28;20185;-77
2023/04/22 06:03:49;;;;;;;10.25;8.30;;;;;;;;;;5075036;28;20437;-77
2023/04/22 06:06:15;;;;;;;10.70;8.57;;;;;;;;;;5074560;28;20208;-78
2023/04/22 06:08:41;;;;;;;13.68;8.60;;;;;;;;;;5074407;28;20185;-77
2023/04/22 06:11:07;;;;;;;11.15;8.50;;;;;;;;;;5056922;28;20280;-76
2023/04/22 06:13:33;;;;;;;10.00;8.27;;;;;;;;;;5074642;28;20243;-77
2023/04/22 06:16:00;;;;;;;19.10;9.13;;;;;;;;;;5056370;28;20506;-77
2023/04/22 06:18:26;;;;;;;12.93;8.43;;;;;;;;;;5056436;28;20430;-77
2023/04/22 06:20:52;;;;;;;12.98;8.00;;;;;;;;;;5074900;28;20347;-77
2023/04/22 06:23:18;;;;;;;12.93;8.27;;;;;;;;;;5057209;28;20200;-77
2023/04/22 06:25:44;;;;;;;10.00;8.00;;;;;;;;;;5040474;28;20962;-77
2023/04/22 06:28:10;;;;;;;8.88;7.35;;;;;;;;;;5074165;28;20561;-77
2023/04/22 06:30:36;;;;;;;10.53;7.33;;;;;;;;;;5056861;28;20216;-77
2023/04/22 06:33:02;;;;;;;9.75;7.53;;;;;;;;;;5074879;28;20399;-80
2023/04/22 06:35:28;;;;;;;8.63;6.97;;;;;;;;;;5074327;28;20177;-77
2023/04/22 06:37:54;;;;;;;9.13;6.77;;;;;;;;;;5057063;28;20398;-77
2023/04/22 06:40:20;;;;;;;10.63;7.10;;;;;;;;;;5056862;28;20454;-76
2023/04/22 06:42:46;;;;;;;8.43;6.13;;;;;;;;;;5073798;28;20407;-77
2023/04/22 06:45:12;;;;;;;6.17;5.60;;;;;;;;;;5074362;28;20410;-77
2023/04/22 06:47:39;;;;;;;8.13;6.03;;;;;;;;;;5055846;28;20415;-77
2023/04/22 06:50:08;;;;;;;5.80;5.10;;;;;;;;;;5056074;28;21109;-76
2023/04/22 06:52:34;;;;;;;6.10;5.37;;;;;;;;;;5073202;28;20423;-76
2023/04/22 06:55:02;;;;;;;11.47;5.97;;;;;;;;;;5074482;28;20415;-76
2023/04/22 06:57:28;;;;;;;4.60;4.20;;;;;;;;;;5073761;28;20415;-76
2023/04/22 06:59:54;;;;;;;6.13;5.03;;;;;;;;;;5073386;28;20450;-78
2023/04/22 07:02:20;;;;;;;5.83;5.20;;;;;;;;;;5074311;28;20405;-77
2023/04/22 07:04:47;;;;;;;5.23;4.73;;;;;;;;;;5073623;28;20469;-76
2023/04/22 07:07:13;;;;;;;5.17;4.67;;;;;;;;;;5073970;28;20412;-77
2023/04/22 07:09:39;;;;;;;7.40;4.47;;;;;;;;;;5073768;28;20403;-77
2023/04/22 07:12:05;;;;;;;5.10;4.60;;;;;;;;;;5074184;28;20411;-77
2023/04/22 07:14:32;;;;;;;8.17;4.63;;;;;;;;;;5073833;28;20395;-77
2023/04/22 07:16:58;;;;;;;4.60;4.20;;;;;;;;;;5073875;28;20407;-77
2023/04/22 07:19:24;;;;;;;5.27;4.10;;;;;;;;;;5073783;28;20524;-89
2023/04/22 07:21:50;;;;;;;4.10;3.70;;;;;;;;;;5055571;28;20453;-77
2023/04/22 07:24:16;;;;;;;4.63;4.23;;;;;;;;;;5073937;28;20490;-77
2023/04/22 07:26:43;;;;;;;6.63;4.23;;;;;;;;;;5072897;28;20386;-77
2023/04/22 07:29:10;;;;;;;4.90;4.40;;;;;;;;;;5055840;28;20385;-77
2023/04/22 07:31:36;;;;;;;6.93;4.37;;;;;;;;;;5073141;28;21000;-78
2023/04/22 07:34:02;;;;;;;5.43;4.37;;;;;;;;;;5055264;28;20413;-77
2023/04/22 07:36:28;;;;;;;4.33;3.93;;;;;;;;;;5073160;28;20442;-77
2023/04/22 07:38:54;;;;;;;4.17;3.77;;;;;;;;;;5073318;28;20485;-79
2023/04/22 07:41:20;;;;;;;4.70;3.97;;;;;;;;;;5076798;28;20419;-77
2023/04/22 07:43:46;;;;;;;4.90;3.57;;;;;;;;;;5059095;28;20411;-77
2023/04/22 07:46:12;;;;;;;4.53;3.50;;;;;;;;;;5077545;28;20978;-78
2023/04/22 07:48:38;;;;;;;3.40;2.93;;;;;;;;;;5076700;28;20799;-77
2023/04/22 07:51:04;;;;;;;3.60;3.10;;;;;;;;;;5077588;28;20557;-77
2023/04/22 07:53:30;;;;;;;2.90;2.47;;;;;;;;;;5058803;28;20950;-78
2023/04/22 07:55:56;;;;;;;3.40;3.10;;;;;;;;;;5076864;28;20443;-80
2023/04/22 07:58:22;;;;;;;2.93;2.73;;;;;;;;;;5076616;28;20773;-78
2023/04/22 08:00:48;;;;;;;3.60;2.90;;;;;;;;;;5058610;28;20456;-77
2023/04/22 08:03:14;;;;;;;4.07;3.00;;;;;;;;;;5076562;28;20407;-80
2023/04/22 08:05:40;;;;;;;3.10;2.77;;;;;;;;;;5076754;28;20416;-77
2023/04/22 08:08:06;;;;;;;2.80;2.50;;;;;;;;;;5076808;28;20370;-77
2023/04/22 08:10:32;;;;;;;3.10;2.60;;;;;;;;;;5076457;28;20734;-77
2023/04/22 08:12:58;;;;;;;2.63;2.37;;;;;;;;;;5076661;28;20373;-77
2023/04/22 08:15:24;;;;;;;2.97;2.77;;;;;;;;;;5076199;28;20419;-77
2023/04/22 08:17:50;;;;;;;4.40;2.93;;;;;;;;;;5057742;28;20398;-77
2023/04/22 08:20:17;;;;;;;4.00;1.97;;;;;;;;;;5069746;28;20454;-79
2023/04/22 08:22:43;;;;;;;2.43;2.27;;;;;;;;;;5075394;28;20390;-79
2023/04/22 08:25:09;;;;;;;2.80;2.40;;;;;;;;;;5075873;28;20373;-79
2023/04/22 08:27:35;;;;;;;2.63;1.87;;;;;;;;;;5057927;28;20427;-78
2023/04/22 08:30:01;;;;;;;2.03;1.93;;;;;;;;;;5076348;28;20489;-78
2023/04/22 08:32:27;;;;;;;3.13;1.97;;;;;;;;;;5075847;28;20416;-78
2023/04/22 08:34:53;;;;;;;2.40;1.90;;;;;;;;;;5057931;28;20399;-79
2023/04/22 08:37:20;;;;;;;4.80;1.90;;;;;;;;;;5076114;28;20489;-78
2023/04/22 08:39:46;;;;;;;2.70;2.40;;;;;;;;;;5057135;28;20444;-80
2023/04/22 08:42:12;;;;;;;3.87;2.47;;;;;;;;;;5040616;28;20410;-78
2023/04/22 08:44:38;;;;;;;7.23;2.37;;;;;;;;;;5058383;28;20414;-76
2023/04/22 08:47:04;;;;;;;3.00;2.10;;;;;;;;;;5058221;28;20381;-78
2023/04/22 08:49:30;;;;;;;3.70;2.33;;;;;;;;;;5075322;28;20910;-77
2023/04/22 08:51:57;;;;;;;2.20;2.00;;;;;;;;;;5042072;28;20415;-77
2023/04/22 08:54:23;;;;;;;3.37;1.73;;;;;;;;;;5076004;28;20390;-78
2023/04/22 08:56:50;;;;;;;2.37;1.50;;;;;;;;;;5075765;28;20430;-77
2023/04/22 08:59:16;;;;;;;1.90;1.70;;;;;;;;;;5075737;28;20483;-77
2023/04/22 09:01:42;;;;;;;2.00;1.67;;;;;;;;;;5075913;28;20784;-77
2023/04/22 09:04:09;;;;;;;2.47;1.67;;;;;;;;;;5075756;28;20486;-77
2023/04/22 09:06:35;;;;;;;2.83;2.00;;;;;;;;;;5075338;28;20386;-77
2023/04/22 09:09:01;;;;;;;2.13;1.80;;;;;;;;;;5057819;28;20479;-77
2023/04/22 09:11:28;;;;;;;1.80;1.40;;;;;;;;;;5075983;28;20404;-77
2023/04/22 09:13:54;;;;;;;2.50;1.90;;;;;;;;;;5075535;28;20382;-77
2023/04/22 09:16:20;;;;;;;2.23;1.80;;;;;;;;;;5075903;28;20434;-77
2023/04/22 09:18:46;;;;;;;2.00;1.50;;;;;;;;;;5075332;28;20426;-77
2023/04/22 09:21:12;;;;;;;2.30;1.93;;;;;;;;;;5075676;28;20450;-77
2023/04/22 09:23:50;;;;;;;3.10;1.60;;;;;;;;;;5040779;28;20936;-77
2023/04/22 09:26:20;;;;;;;4.97;2.10;;;;;;;;;;5074995;28;20407;-78
2023/04/22 09:28:49;;;;;;;7.17;1.90;;;;;;;;;;5056750;28;20440;-77
2023/04/22 09:31:15;;;;;;;2.47;1.63;;;;;;;;;;5074895;28;20403;-78
2023/04/22 09:33:42;;;;;;;2.33;2.13;;;;;;;;;;5057207;28;20423;-77
2023/04/22 09:36:11;;;;;;;4.77;1.43;;;;;;;;;;5075211;28;20465;-77
2023/04/22 09:38:37;;;;;;;2.63;2.00;;;;;;;;;;5075125;28;20403;-77
2023/04/22 09:41:08;;;;;;;5.83;1.63;;;;;;;;;;5074848;28;20494;-77
2023/04/22 09:43:34;;;;;;;3.47;1.50;;;;;;;;;;5074894;28;20800;-77
2023/04/22 09:46:00;;;;;;;2.13;1.40;;;;;;;;;;5057243;28;20446;-78
2023/04/22 09:48:26;;;;;;;3.30;1.60;;;;;;;;;;5056789;28;20422;-77
2023/04/22 09:50:52;;;;;;;2.20;1.70;;;;;;;;;;5040058;28;20470;-77
2023/04/22 09:53:19;;;;;;;4.17;1.70;;;;;;;;;;5074578;28;20406;-78
2023/04/22 09:55:47;;;;;;;4.60;2.10;;;;;;;;;;5056342;28;20418;-77
2023/04/22 09:58:14;;;;;;;2.27;1.70;;;;;;;;;;5056633;28;20465;-77
2023/04/22 10:00:42;;;;;;;3.10;2.30;;;;;;;;;;5074243;28;20470;-77
2023/04/22 10:03:08;;;;;;;1.73;1.63;;;;;;;;;;5073518;28;20423;-77
2023/04/22 10:05:36;;;;;;;2.93;1.80;;;;;;;;;;5073957;28;20403;-77
2023/04/22 10:08:06;;;;;;;3.60;2.27;;;;;;;;;;5074327;28;20403;-77
2023/04/22 10:10:32;;;;;;;3.00;2.00;;;;;;;;;;5074105;28;20407;-77
2023/04/22 10:12:59;;;;;;;2.67;2.00;;;;;;;;;;5056391;28;20841;-77
2023/04/22 10:15:26;;;;;;;2.80;1.53;;;;;;;;;;5073835;28;20418;-77
2023/04/22 10:17:52;;;;;;;2.00;1.90;;;;;;;;;;5056111;28;20471;-77
2023/04/22 10:20:19;;;;;;;4.33;1.90;;;;;;;;;;5073759;28;20458;-77
2023/04/22 10:22:46;;;;;;;5.00;2.10;;;;;;;;;;5055843;28;20897;-78
2023/04/22 10:25:12;;;;;;;2.67;1.90;;;;;;;;;;5074132;28;20391;-78
2023/04/22 10:27:39;;;;;;;4.80;1.67;;;;;;;;;;5039430;28;20411;-78
2023/04/22 10:30:06;;;;;;;1.73;1.63;;;;;;;;;;5073880;28;20407;-77
2023/04/22 10:32:32;;;;;;;2.83;2.07;;;;;;;;;;5055854;28;20522;-76
2023/04/22 10:35:09;;;;;;;2.20;1.90;;;;;;;;;;5055533;28;20435;-77
2023/04/22 10:37:35;;;;;;;2.40;2.07;;;;;;;;;;5073203;28;20400;-77
2023/04/22 10:40:06;;;;;;;4.07;2.00;;;;;;;;;;5073800;28;20462;-78
2023/04/22 10:42:33;;;;;;;3.70;2.03;;;;;;;;;;5056417;28;20414;-77
2023/04/22 10:45:03;;;;;;;3.30;2.17;;;;;;;;;;5073356;28;20407;-77
2023/04/22 10:47:29;;;;;;;5.07;1.97;;;;;;;;;;5055660;28;20807;-77
2023/04/22 10:50:14;;;;;;;3.63;1.80;;;;;;;;;;5055294;28;20478;-77
2023/04/22 10:52:41;;;;;;;2.20;2.00;;;;;;;;;;5055716;28;20404;-77
2023/04/22 10:55:07;;;;;;;2.43;2.20;;;;;;;;;;5055653;28;20411;-78
2023/04/22 10:57:44;;;;;;;3.80;1.83;;;;;;;;;;5073622;28;20489;-78
2023/04/22 11:00:17;;;;;;;2.37;2.17;;;;;;;;;;5073487;28;20428;-77
2023/04/22 11:02:45;;;;;;;4.50;3.20;;;;;;;;;;5055426;28;20438;-77
2023/04/22 11:05:18;;;;;;;4.50;2.67;;;;;;;;;;5055831;28;20393;-77
2023/04/22 11:07:44;;;;;;;5.70;2.10;;;;;;;;;;5073405;28;20395;-78
2023/04/22 11:10:15;;;;;;;2.57;2.20;;;;;;;;;;5073316;28;20399;-78
2023/04/22 11:12:42;;;;;;;4.83;2.30;;;;;;;;;;5055251;28;20403;-78
2023/04/22 11:15:12;;;;;;;2.97;2.10;;;;;;;;;;5076658;28;20465;-77
2023/04/22 11:17:39;;;;;;;2.70;2.50;;;;;;;;;;5059351;28;20497;-77
2023/04/22 11:20:06;;;;;;;3.40;2.07;;;;;;;;;;5077282;28;20460;-77
2023/04/22 11:22:41;;;;;;;2.77;2.00;;;;;;;;;;5059306;28;20769;-77
2023/04/22 11:25:09;;;;;;;2.77;2.10;;;;;;;;;;5076167;28;20390;-78
2023/04/22 11:27:35;;;;;;;4.47;1.97;;;;;;;;;;5076442;28;20446;-77
2023/04/22 11:30:09;;;;;;;3.50;2.10;;;;;;;;;;5076247;28;20911;-77
2023/04/22 11:32:36;;;;;;;2.77;2.00;;;;;;;;;;5049612;28;20435;-78
2023/04/22 11:35:03;;;;;;;6.33;2.60;;;;;;;;;;5046045;28;20489;-77
2023/04/22 11:37:29;;;;;;;4.87;2.70;;;;;;;;;;5069158;28;20533;-77
2023/04/22 11:39:59;;;;;;;4.17;2.53;;;;;;;;;;5075274;28;20815;-77
2023/04/22 11:42:25;;;;;;;2.27;2.07;;;;;;;;;;5058497;28;20464;-78
2023/04/22 11:44:51;;;;;;;2.30;2.00;;;;;;;;;;5076126;28;20418;-78
2023/04/22 11:47:18;;;;;;;5.03;2.33;;;;;;;;;;5076615;28;20411;-77
2023/04/22 11:49:58;;;;;;;4.67;1.90;;;;;;;;;;5056323;28;20462;-77
2023/04/22 11:52:25;;;;;;;2.93;2.53;;;;;;;;;;5075423;28;20407;-77
2023/04/22 11:54:51;;;;;;;5.73;2.37;;;;;;;;;;5066064;28;20407;-77
2023/04/22 11:57:20;;;;;;;3.30;2.10;;;;;;;;;;5055964;28;20443;-77
2023/04/22 11:59:56;;;;;;;5.77;2.50;;;;;;;;;;5055547;28;20558;-78
2023/04/22 12:02:23;;;;;;;2.07;1.90;;;;;;;;;;5056186;28;20427;-77
2023/04/22 12:04:49;;;;;;;2.97;2.33;;;;;;;;;;5055195;28;20412;-77
2023/04/22 12:07:15;;;;;;;2.80;2.30;;;;;;;;;;5042457;28;20429;-77
2023/04/22 12:09:41;;;;;;;6.90;2.50;;;;;;;;;;5075532;28;20407;-77
2023/04/22 12:12:09;;;;;;;13.33;2.57;;;;;;;;;;5057807;28;20406;-77
2023/04/22 12:14:37;;;;;;;3.00;2.30;;;;;;;;;;5040167;28;20455;-78
2023/04/22 12:17:04;;;;;;;2.50;1.90;;;;;;;;;;5055214;28;20404;-77
2023/04/22 12:19:30;;;;;;;2.40;1.97;;;;;;;;;;5038204;28;20491;-77
2023/04/22 12:21:56;;;;;;;3.90;2.50;;;;;;;;;;5055359;28;20415;-78
2023/04/22 12:24:29;;;;;;;2.80;2.27;;;;;;;;;;5055429;28;20760;-77
2023/04/22 12:26:55;;;;;;;3.00;2.10;;;;;;;;;;5054724;28;20408;-77
2023/04/22 12:29:31;;;;;;;5.67;2.50;;;;;;;;;;5055305;28;20408;-77
2023/04/22 12:31:57;;;;;;;2.53;2.20;;;;;;;;;;5067826;28;20513;-77
2023/04/22 12:34:23;;;;;;;2.73;2.00;;;;;;;;;;5075605;28;20446;-77
2023/04/22 12:36:49;;;;;;;3.83;2.33;;;;;;;;;;5057532;28;20803;-77
2023/04/22 12:39:15;;;;;;;3.13;1.80;;;;;;;;;;5075640;28;20459;-77
2023/04/22 12:41:42;;;;;;;2.50;1.53;;;;;;;;;;5075339;28;20456;-79
2023/04/22 12:44:08;;;;;;;1.93;1.63;;;;;;;;;;5057239;28;20411;-77
2023/04/22 12:46:35;;;;;;;3.10;1.93;;;;;;;;;;5074423;28;20415;-78
2023/04/22 12:49:01;;;;;;;4.40;2.17;;;;;;;;;;5056760;28;20774;-77
2023/04/22 12:51:27;;;;;;;2.87;2.10;;;;;;;;;;5057260;28;20431;-77
2023/04/22 12:53:53;;;;;;;5.00;2.23;;;;;;;;;;5075343;28;20407;-77
2023/04/22 12:56:19;;;;;;;3.30;1.90;;;;;;;;;;5075007;28;20374;-77
2023/04/22 12:58:45;;;;;;;2.60;2.20;;;;;;;;;;5056907;28;20903;-77
2023/04/22 13:01:11;;;;;;;3.97;2.03;;;;;;;;;;5074011;28;20445;-77
2023/04/22 13:03:37;;;;;;;3.30;1.83;;;;;;;;;;5074798;28;20394;-77
2023/04/22 13:06:03;;;;;;;3.97;2.30;;;;;;;;;;5056820;28;21128;-77
2023/04/22 13:08:29;;;;;;;2.70;2.50;;;;;;;;;;5074654;28;20403;-77
2023/04/22 13:10:55;;;;;;;4.50;2.30;;;;;;;;;;5074103;28;20399;-77
2023/04/22 13:13:21;;;;;;;3.47;1.97;;;;;;;;;;5074463;28;20399;-77
2023/04/22 13:15:52;;;;;;;2.53;1.60;;;;;;;;;;5074370;28;20366;-78
2023/04/22 13:18:18;;;;;;;4.13;2.17;;;;;;;;;;5056775;28;20494;-77
2023/04/22 13:20:45;;;;;;;2.30;2.10;;;;;;;;;;5074520;28;20803;-79
2023/04/22 13:23:12;;;;;;;2.20;1.93;;;;;;;;;;5074554;28;20407;-77
2023/04/22 13:25:38;;;;;;;3.60;2.30;;;;;;;;;;5056329;28;20435;-78
2023/04/22 13:28:04;;;;;;;8.70;2.00;;;;;;;;;;5056306;28;20393;-77
2023/04/22 13:30:30;;;;;;;4.53;2.00;;;;;;;;;;5074837;28;20411;-77
2023/04/22 13:32:56;;;;;;;3.10;2.10;;;;;;;;;;5056212;28;20544;-77
2023/04/22 13:35:23;;;;;;;2.63;1.90;;;;;;;;;;5039592;28;20419;-77
2023/04/22 13:37:49;;;;;;;4.77;1.90;;;;;;;;;;5055194;28;20411;-77
2023/04/22 13:40:15;;;;;;;2.83;1.87;;;;;;;;;;5056532;28;20441;-77
2023/04/22 13:42:43;;;;;;;2.00;1.90;;;;;;;;;;5039443;28;20400;-78
2023/04/22 13:45:09;;;;;;;3.80;1.97;;;;;;;;;;5056663;28;20446;-83
2023/04/22 13:47:35;;;;;;;2.73;2.00;;;;;;;;;;5056604;28;20390;-78
2023/04/22 13:50:02;;;;;;;4.20;2.27;;;;;;;;;;5055734;28;20458;-78
2023/04/22 13:52:28;;;;;;;2.07;1.60;;;;;;;;;;5073870;28;20386;-78
2023/04/22 13:54:54;;;;;;;2.37;1.90;;;;;;;;;;5039176;28;20427;-77
2023/04/22 13:57:21;;;;;;;3.30;1.60;;;;;;;;;;5073565;28;20494;-77
2023/04/22 13:59:49;;;;;;;2.27;1.50;;;;;;;;;;5073637;28;20462;-78
2023/04/22 14:02:15;;;;;;;2.30;1.67;;;;;;;;;;5074149;28;20927;-78
2023/04/22 14:04:41;;;;;;;4.20;2.10;;;;;;;;;;5055902;28;20464;-78
2023/04/22 14:07:07;;;;;;;2.13;1.73;;;;;;;;;;5055428;28;20398;-77
2023/04/22 14:09:33;;;;;;;2.17;1.50;;;;;;;;;;5039077;28;20427;-78
2023/04/22 14:11:59;;;;;;;2.80;1.80;;;;;;;;;;5055460;28;20444;-77
2023/04/22 14:14:25;;;;;;;3.20;1.50;;;;;;;;;;5073572;28;20407;-77
2023/04/22 14:16:51;;;;;;;3.10;1.87;;;;;;;;;;5073454;28;20385;-77
2023/04/22 14:19:17;;;;;;;2.87;1.60;;;;;;;;;;5073593;28;20450;-77
2023/04/22 14:21:43;;;;;;;1.80;1.33;;;;;;;;;;5056000;28;20497;-77
2023/04/22 14:24:10;;;;;;;4.70;3.80;;;;;;;;;;5038755;28;20398;-77
2023/04/22 14:26:36;;;;;;;1.60;1.50;;;;;;;;;;5055586;28;20404;-78
2023/04/22 14:29:02;;;;;;;1.50;1.10;;;;;;;;;;5073694;28;20385;-77
2023/04/22 14:31:28;;;;;;;2.60;1.67;;;;;;;;;;5073331;28;20905;-78